Terminal Aerodrome Forecast
Issued by NWS Green Bay, WI

Home | Current Version | Previous Version | Text Only | Print | Product List | Glossary Off
Versions: 1 2 3 4 5 6 7 8 9 10 11 12 13 14 15 16 17 18

000
FTUS43 KGRB 190520
TAFGRB
TAF
KGRB 190520Z 1906/2006 20006KT P6SM OVC080 WS018/23035KT
     FM191100 19003KT P6SM OVC050
     FM191400 04005KT 4SM -DZ BR OVC024
     FM191700 04018G27KT 3SM -DZ BR OVC010
     FM192000 04015G23KT 3SM -FZRA BR OVC007=

USA.gov is the U.S. government's official web portal to all federal, state and local government web resources and services.